createdAt,value
2022-12-31T00:05:14.805Z,20.83
2022-12-31T00:15:16.545Z,21.73
2022-12-31T00:25:18.462Z,20.67
2022-12-31T00:35:20.303Z,19.90
2022-12-31T00:45:21.996Z,23.05
2022-12-31T00:55:23.606Z,22.67
2022-12-31T01:05:30.804Z,21.77
2022-12-31T01:15:37.090Z,22.27
2022-12-31T01:25:41.928Z,20.88
2022-12-31T01:35:43.576Z,21.75
2022-12-31T01:45:48.877Z,20.05
2022-12-31T01:55:57.992Z,19.88
2022-12-31T02:06:16.241Z,21.02
2022-12-31T02:16:47.142Z,22.17
2022-12-31T02:27:10.254Z,20.10
2022-12-31T02:37:14.669Z,25.67
2022-12-31T02:47:38.187Z,25.83
2022-12-31T02:57:46.874Z,25.60
2022-12-31T03:07:49.159Z,27.10
2022-12-31T03:17:55.787Z,26.40
2022-12-31T03:27:57.709Z,24.45
2022-12-31T03:37:59.738Z,24.80
2022-12-31T03:48:02.751Z,24.38
2022-12-31T03:58:04.624Z,25.90
2022-12-31T04:08:06.299Z,23.55
2022-12-31T04:18:13.789Z,24.25
2022-12-31T04:28:15.459Z,23.63
2022-12-31T04:38:17.262Z,25.27
2022-12-31T04:48:21.652Z,25.90
2022-12-31T04:58:23.822Z,25.42
2022-12-31T05:08:25.552Z,25.65
2022-12-31T05:18:27.573Z,26.38
2022-12-31T05:28:29.728Z,28.42
2022-12-31T05:38:31.862Z,28.63
2022-12-31T05:48:34.125Z,29.63
2022-12-31T05:58:35.740Z,28.45
2022-12-31T06:08:37.763Z,26.98
2022-12-31T06:18:39.503Z,23.15
2022-12-31T06:28:41.449Z,25.77
2022-12-31T06:38:46.478Z,35.80
2022-12-31T06:48:48.189Z,26.63
2022-12-31T06:58:51.150Z,25.52
2022-12-31T07:09:08.909Z,28.13
2022-12-31T07:19:35.745Z,26.75
2022-12-31T07:29:43.297Z,27.70
2022-12-31T07:39:51.970Z,28.73
2022-12-31T07:49:56.870Z,25.75
2022-12-31T08:00:20.767Z,28.70
2022-12-31T08:10:39.445Z,29.13
2022-12-31T08:21:35.150Z,31.58
2022-12-31T08:32:06.732Z,28.42
2022-12-31T08:42:20.951Z,27.38
2022-12-31T08:52:32.909Z,24.27
2022-12-31T09:02:52.298Z,26.27
2022-12-31T09:13:11.583Z,25.95
2022-12-31T09:23:13.760Z,24.58
2022-12-31T09:33:26.328Z,24.30
2022-12-31T09:44:01.131Z,25.23
2022-12-31T09:54:08.100Z,23.10
2022-12-31T10:04:47.145Z,26.50
2022-12-31T10:15:12.126Z,27.67
2022-12-31T10:25:39.687Z,28.75
2022-12-31T10:35:54.717Z,25.00
2022-12-31T10:46:30.310Z,28.42
2022-12-31T10:56:58.272Z,29.55
2022-12-31T11:07:29.049Z,31.23
2022-12-31T11:17:45.216Z,30.42
2022-12-31T11:28:20.701Z,30.17
2022-12-31T11:38:30.493Z,28.80
2022-12-31T11:48:36.848Z,27.40
2022-12-31T11:58:42.127Z,32.38
2022-12-31T12:08:44.546Z,28.35
2022-12-31T12:18:51.403Z,28.30
2022-12-31T12:28:53.087Z,28.50
2022-12-31T12:39:06.093Z,41.88
2022-12-31T12:49:18.486Z,28.43
2022-12-31T12:59:51.180Z,29.52
2022-12-31T13:10:32.749Z,31.38
2022-12-31T13:20:45.718Z,29.55
2022-12-31T13:30:53.610Z,30.47
2022-12-31T13:41:04.335Z,27.40
2022-12-31T13:51:44.858Z,26.77
2022-12-31T14:01:56.649Z,26.10
2022-12-31T14:12:14.105Z,25.67
2022-12-31T14:22:24.823Z,24.50
2022-12-31T14:33:04.906Z,25.58
2022-12-31T14:43:21.873Z,23.92
2022-12-31T14:53:25.841Z,24.77
2022-12-31T15:03:45.079Z,26.55
2022-12-31T15:14:03.014Z,28.50
2022-12-31T15:24:34.545Z,25.60
2022-12-31T15:34:37.253Z,23.67
2022-12-31T15:44:48.360Z,25.63
2022-12-31T15:54:51.653Z,24.55
2022-12-31T16:04:55.499Z,26.25
2022-12-31T16:15:05.133Z,27.17
2022-12-31T16:25:32.669Z,27.85
2022-12-31T16:35:37.331Z,30.45
2022-12-31T16:45:39.129Z,31.48
2022-12-31T16:55:41.257Z,31.58
2022-12-31T17:05:58.871Z,31.52
2022-12-31T17:16:02.044Z,32.90
2022-12-31T17:26:11.203Z,34.73
2022-12-31T17:36:21.127Z,34.20
2022-12-31T17:46:26.589Z,33.60
2022-12-31T17:56:28.517Z,35.75
2022-12-31T18:06:30.362Z,43.17
2022-12-31T18:16:32.032Z,39.10
2022-12-31T18:26:34.675Z,37.67
2022-12-31T18:36:36.455Z,42.38
2022-12-31T18:46:38.130Z,42.05
2022-12-31T18:56:46.344Z,42.83
2022-12-31T19:06:49.788Z,45.80
2022-12-31T19:16:55.259Z,50.95
2022-12-31T19:26:57.269Z,51.78
2022-12-31T19:36:59.303Z,60.15
2022-12-31T19:47:03.297Z,94.05
2022-12-31T19:57:05.016Z,79.05
2022-12-31T20:07:06.821Z,84.40
2022-12-31T20:17:08.722Z,92.25
2022-12-31T20:27:18.134Z,90.35
2022-12-31T20:37:20.241Z,96.68
2022-12-31T20:47:22.176Z,98.18
2022-12-31T20:57:26.566Z,137.25
2022-12-31T21:07:30.443Z,142.82
2022-12-31T21:17:38.316Z,246.63
2022-12-31T21:27:40.044Z,108.25
2022-12-31T21:37:59.009Z,154.63
2022-12-31T21:48:21.241Z,148.90
2022-12-31T21:58:27.707Z,114.90
2022-12-31T22:08:31.317Z,104.55
2022-12-31T22:18:38.795Z,104.43
2022-12-31T22:28:43.371Z,104.18
2022-12-31T22:38:46.992Z,108.00
2022-12-31T22:48:50.063Z,106.20
2022-12-31T22:58:51.642Z,110.20
2022-12-31T23:09:11.916Z,105.28
2022-12-31T23:19:35.588Z,120.05
2022-12-31T23:29:46.634Z,139.50
2022-12-31T23:39:49.240Z,121.95
2022-12-31T23:49:50.859Z,229.57
2022-12-31T23:59:52.595Z,219.07
